createdAt,value
2022-10-22T00:00:46.732Z,10.73
2022-10-22T00:01:48.864Z,10.60
2022-10-22T00:02:50.887Z,10.40
2022-10-22T00:03:52.545Z,10.27
2022-10-22T00:04:56.999Z,10.24
2022-10-22T00:05:58.997Z,10.14
2022-10-22T00:07:00.644Z,10.02
2022-10-22T00:08:02.291Z,10.09
2022-10-22T00:09:04.295Z,10.18
2022-10-22T00:10:07.259Z,10.25
2022-10-22T00:11:14.268Z,10.32
2022-10-22T00:12:16.731Z,10.39
2022-10-22T00:13:18.911Z,10.44
2022-10-22T00:14:20.720Z,10.51
2022-10-22T00:15:22.395Z,10.55
2022-10-22T00:16:23.968Z,10.59
2022-10-22T00:17:25.495Z,10.60
2022-10-22T00:18:27.044Z,10.65
2022-10-22T00:19:28.778Z,10.70
2022-10-22T00:20:30.322Z,10.73
2022-10-22T00:21:31.946Z,10.76
2022-10-22T00:22:33.482Z,10.80
2022-10-22T00:23:35.420Z,10.79
2022-10-22T00:24:39.019Z,10.78
2022-10-22T00:25:40.535Z,10.80
2022-10-22T00:26:42.163Z,10.82
2022-10-22T00:27:43.778Z,10.83
2022-10-22T00:28:45.318Z,10.81
2022-10-22T00:29:46.920Z,10.79
2022-10-22T00:30:48.668Z,10.78
2022-10-22T00:31:50.617Z,10.77
2022-10-22T00:32:52.219Z,10.76
2022-10-22T00:33:53.769Z,10.74
2022-10-22T00:34:55.408Z,10.74
2022-10-22T00:35:57.109Z,10.75
2022-10-22T00:36:59.113Z,10.65
2022-10-22T00:38:00.641Z,10.62
2022-10-22T00:39:02.175Z,10.56
2022-10-22T00:40:04.488Z,10.52
2022-10-22T00:41:06.644Z,10.51
2022-10-22T00:42:16.769Z,10.50
2022-10-22T00:43:19.838Z,10.51
2022-10-22T00:45:05.479Z,10.55
2022-10-22T00:46:06.984Z,10.58
2022-10-22T00:47:08.619Z,10.60
2022-10-22T00:48:20.268Z,10.56
2022-10-22T00:49:21.829Z,10.53
2022-10-22T00:50:38.259Z,10.54
2022-10-22T00:51:39.759Z,10.55
2022-10-22T00:52:41.853Z,10.54
2022-10-22T00:53:53.607Z,10.57
2022-10-22T00:54:55.448Z,10.59
2022-10-22T00:55:57.104Z,10.65
2022-10-22T00:56:58.676Z,10.68
2022-10-22T00:58:01.415Z,10.71
2022-10-22T00:59:04.026Z,10.74
2022-10-22T01:00:06.875Z,10.79
2022-10-22T01:01:15.871Z,10.83
2022-10-22T01:02:17.840Z,10.91
2022-10-22T01:03:19.443Z,10.92
2022-10-22T01:04:21.486Z,10.79
2022-10-22T01:05:23.520Z,10.64
2022-10-22T01:06:30.811Z,10.34
2022-10-22T01:07:44.523Z,10.16
2022-10-22T01:09:00.138Z,9.99
2022-10-22T01:10:07.680Z,9.73
2022-10-22T01:11:36.395Z,9.54
2022-10-22T01:12:52.786Z,9.54
2022-10-22T01:14:04.557Z,9.43
2022-10-22T01:15:17.952Z,9.35
2022-10-22T01:16:34.752Z,9.28
2022-10-22T01:17:58.440Z,9.28
2022-10-22T01:19:37.250Z,9.05
2022-10-22T01:21:00.232Z,8.84
2022-10-22T01:22:08.507Z,8.72
2022-10-22T01:23:36.496Z,8.55
2022-10-22T01:25:13.305Z,8.45
2022-10-22T01:26:33.620Z,8.25
2022-10-22T01:27:38.218Z,8.14
2022-10-22T01:28:45.350Z,8.01
2022-10-22T01:30:02.056Z,8.01
2022-10-22T01:31:06.005Z,8.03
2022-10-22T01:32:12.873Z,8.00
2022-10-22T01:33:19.069Z,7.97
2022-10-22T01:34:22.939Z,7.90
2022-10-22T01:36:37.347Z,7.82
2022-10-22T01:37:48.736Z,7.82
2022-10-22T01:38:51.533Z,7.83
2022-10-22T01:39:54.197Z,7.85
2022-10-22T01:40:57.429Z,7.88
2022-10-22T01:41:58.940Z,7.89
2022-10-22T01:43:02.700Z,7.94
2022-10-22T01:44:04.451Z,7.97
2022-10-22T01:45:13.781Z,7.99
2022-10-22T01:46:17.184Z,8.01
2022-10-22T01:48:00.919Z,8.07
2022-10-22T01:49:02.424Z,8.09
2022-10-22T01:50:25.808Z,8.21
2022-10-22T01:51:42.883Z,8.34
2022-10-22T01:52:52.424Z,8.30
2022-10-22T01:54:17.228Z,8.25
2022-10-22T01:55:48.031Z,8.24
2022-10-22T01:57:31.052Z,8.26
2022-10-22T01:59:20.566Z,8.41
2022-10-22T02:00:22.201Z,8.50
2022-10-22T02:01:32.098Z,8.61
2022-10-22T02:02:48.853Z,8.73
2022-10-22T02:04:01.414Z,8.79
2022-10-22T02:05:15.101Z,8.71
2022-10-22T02:06:21.104Z,8.72
2022-10-22T02:07:28.865Z,8.77
2022-10-22T02:08:33.736Z,8.81
2022-10-22T02:09:36.603Z,8.72
2022-10-22T02:10:40.771Z,8.52
2022-10-22T02:11:44.247Z,8.35
2022-10-22T02:12:50.558Z,8.23
2022-10-22T02:13:56.786Z,8.11
2022-10-22T02:15:00.858Z,8.14
2022-10-22T02:16:04.436Z,8.20
2022-10-22T02:17:12.214Z,8.33
2022-10-22T02:18:15.774Z,8.40
2022-10-22T02:19:26.393Z,8.51
2022-10-22T02:20:34.420Z,8.63
2022-10-22T02:21:36.042Z,8.72
2022-10-22T02:22:38.069Z,8.76
2022-10-22T02:23:40.004Z,8.79
2022-10-22T02:24:41.830Z,8.84
2022-10-22T02:25:49.641Z,8.86
2022-10-22T02:27:15.857Z,8.89
2022-10-22T02:28:21.954Z,8.93
2022-10-22T02:29:35.757Z,8.98
2022-10-22T02:30:40.072Z,9.02
2022-10-22T02:31:45.139Z,9.05
2022-10-22T02:33:04.266Z,9.10
2022-10-22T02:34:11.273Z,9.12
2022-10-22T02:35:17.487Z,9.08
2022-10-22T02:36:20.175Z,9.03
2022-10-22T02:37:23.429Z,9.05
2022-10-22T02:38:27.016Z,9.10
2022-10-22T02:39:30.156Z,9.02
2022-10-22T02:40:32.423Z,8.98
2022-10-22T02:41:34.417Z,8.88
2022-10-22T02:42:38.018Z,8.81
2022-10-22T02:43:45.764Z,8.79
2022-10-22T02:44:47.308Z,8.80
2022-10-22T02:45:49.272Z,8.62
2022-10-22T02:46:51.237Z,8.59
2022-10-22T02:47:52.828Z,8.63
2022-10-22T02:48:54.449Z,8.63
2022-10-22T02:49:55.978Z,8.62
2022-10-22T02:50:57.511Z,8.62
2022-10-22T02:51:59.781Z,8.62
2022-10-22T02:53:01.317Z,8.62
2022-10-22T02:54:05.105Z,8.66
2022-10-22T02:55:07.040Z,8.72
2022-10-22T02:56:09.163Z,8.81
2022-10-22T02:57:10.812Z,8.85
2022-10-22T02:58:13.994Z,8.89
2022-10-22T02:59:15.533Z,8.89
2022-10-22T03:00:17.198Z,8.83
2022-10-22T03:01:18.784Z,8.76
2022-10-22T03:02:20.357Z,8.77
2022-10-22T03:03:21.940Z,8.80
2022-10-22T03:04:23.471Z,8.82
2022-10-22T03:05:25.016Z,8.86
2022-10-22T03:06:26.635Z,8.87
2022-10-22T03:07:28.208Z,8.88
2022-10-22T03:08:30.014Z,8.72
2022-10-22T03:09:31.584Z,8.58
2022-10-22T03:10:33.158Z,8.47
2022-10-22T03:11:34.695Z,8.29
2022-10-22T03:12:36.250Z,7.98
2022-10-22T03:13:38.163Z,7.89
2022-10-22T03:14:39.717Z,7.83
2022-10-22T03:15:41.285Z,7.82
2022-10-22T03:16:42.854Z,7.79
2022-10-22T03:17:44.434Z,7.82
2022-10-22T03:18:46.047Z,7.88
2022-10-22T03:19:47.894Z,8.01
2022-10-22T03:20:49.440Z,8.12
2022-10-22T03:21:56.147Z,8.23
2022-10-22T03:22:57.856Z,8.35
2022-10-22T03:24:02.831Z,8.40
2022-10-22T03:25:10.498Z,8.45
2022-10-22T03:26:13.698Z,8.47
2022-10-22T03:27:18.560Z,8.50
2022-10-22T03:28:20.808Z,8.59
2022-10-22T03:29:25.674Z,8.66
2022-10-22T03:30:27.294Z,8.70
2022-10-22T03:31:28.908Z,8.71
2022-10-22T03:32:31.844Z,8.73
2022-10-22T03:33:34.952Z,8.77
2022-10-22T03:34:36.525Z,8.80
2022-10-22T03:35:43.974Z,8.86
2022-10-22T03:36:45.966Z,8.92
2022-10-22T03:37:47.737Z,8.83
2022-10-22T03:38:49.659Z,8.76
2022-10-22T03:39:52.381Z,8.59
2022-10-22T03:40:55.418Z,8.36
2022-10-22T03:41:57.718Z,8.22
2022-10-22T03:42:59.417Z,8.02
2022-10-22T03:44:03.090Z,7.86
2022-10-22T03:45:05.795Z,7.88
2022-10-22T03:46:07.903Z,7.84
2022-10-22T03:47:09.568Z,7.84
2022-10-22T03:48:11.148Z,7.78
2022-10-22T03:49:12.699Z,7.71
2022-10-22T03:50:14.396Z,7.69
2022-10-22T03:51:16.257Z,7.72
2022-10-22T03:52:18.182Z,7.78
2022-10-22T03:53:19.936Z,7.77
2022-10-22T03:54:21.472Z,7.79
2022-10-22T03:55:23.032Z,7.77
2022-10-22T03:56:24.709Z,7.65
2022-10-22T03:57:26.288Z,7.47
2022-10-22T03:58:28.021Z,7.40
2022-10-22T03:59:29.547Z,7.25
2022-10-22T04:00:31.126Z,7.10
2022-10-22T04:01:32.771Z,7.06
2022-10-22T04:02:34.492Z,7.10
2022-10-22T04:03:36.343Z,7.17
2022-10-22T04:04:38.200Z,7.20
2022-10-22T04:05:39.771Z,7.22
2022-10-22T04:06:41.300Z,7.28
2022-10-22T04:07:43.095Z,7.35
2022-10-22T04:08:45.490Z,7.41
2022-10-22T04:09:47.130Z,7.50
2022-10-22T04:10:52.197Z,7.50
2022-10-22T04:11:53.770Z,7.50
2022-10-22T04:12:55.381Z,7.57
2022-10-22T04:13:56.952Z,7.66
2022-10-22T04:14:58.537Z,7.72
2022-10-22T04:16:16.039Z,7.76
2022-10-22T04:17:17.580Z,7.74
2022-10-22T04:18:20.627Z,7.60
2022-10-22T04:19:22.305Z,7.51
2022-10-22T04:20:23.920Z,7.51
2022-10-22T04:21:25.967Z,7.51
2022-10-22T04:22:27.472Z,7.45
2022-10-22T04:23:29.037Z,7.40
2022-10-22T04:24:32.054Z,7.34
2022-10-22T04:25:33.612Z,7.32
2022-10-22T04:26:35.231Z,7.28
2022-10-22T04:27:36.970Z,7.26
2022-10-22T04:28:38.584Z,7.15
2022-10-22T04:29:40.149Z,7.10
2022-10-22T04:30:41.691Z,7.08
2022-10-22T04:31:43.356Z,7.02
2022-10-22T04:32:44.912Z,6.96
2022-10-22T04:33:47.061Z,6.91
2022-10-22T04:34:48.642Z,6.91
2022-10-22T04:35:50.250Z,6.94
2022-10-22T04:36:51.796Z,6.97
2022-10-22T04:37:54.969Z,6.96
2022-10-22T04:38:59.609Z,6.97
2022-10-22T04:40:01.211Z,7.06
2022-10-22T04:41:23.266Z,7.17
2022-10-22T04:42:24.863Z,7.22
2022-10-22T04:43:27.065Z,7.25
2022-10-22T04:44:28.645Z,7.26
2022-10-22T04:45:30.358Z,7.31
2022-10-22T04:46:33.733Z,7.38
2022-10-22T04:47:35.361Z,7.51
2022-10-22T04:48:38.485Z,7.59
2022-10-22T04:49:40.434Z,7.65
2022-10-22T04:50:41.952Z,7.73
2022-10-22T04:51:43.484Z,7.79
2022-10-22T04:52:45.004Z,7.83
2022-10-22T04:53:47.171Z,7.86
2022-10-22T04:54:48.682Z,7.93
2022-10-22T04:55:50.226Z,8.01
2022-10-22T04:56:51.985Z,8.05
2022-10-22T04:57:53.601Z,8.12
2022-10-22T04:58:58.372Z,8.20
2022-10-22T05:00:02.170Z,8.25
2022-10-22T05:01:18.461Z,8.26
2022-10-22T05:02:20.020Z,8.27
2022-10-22T05:03:21.591Z,8.29
2022-10-22T05:04:23.154Z,8.34
2022-10-22T05:05:24.708Z,8.41
2022-10-22T05:06:28.456Z,8.40
2022-10-22T05:07:30.300Z,8.37
2022-10-22T05:08:32.080Z,8.37
2022-10-22T05:09:33.736Z,8.39
2022-10-22T05:10:35.250Z,8.42
2022-10-22T05:11:41.483Z,8.43
2022-10-22T05:12:43.049Z,8.44
2022-10-22T05:13:44.688Z,8.45
2022-10-22T05:14:46.263Z,8.47
2022-10-22T05:15:47.826Z,8.46
2022-10-22T05:16:52.345Z,8.50
2022-10-22T05:17:56.447Z,8.45
2022-10-22T05:19:02.099Z,8.48
2022-10-22T05:20:07.021Z,8.53
2022-10-22T05:21:11.335Z,8.53
2022-10-22T05:22:12.979Z,8.54
2022-10-22T05:23:15.156Z,8.55
2022-10-22T05:24:16.940Z,8.57
2022-10-22T05:25:18.632Z,8.59
2022-10-22T05:26:23.795Z,8.61
2022-10-22T05:27:25.692Z,8.59
2022-10-22T05:28:27.236Z,8.32
2022-10-22T05:29:28.942Z,8.26
2022-10-22T05:30:30.596Z,8.31
2022-10-22T05:31:32.332Z,8.39
2022-10-22T05:32:35.453Z,8.47
2022-10-22T05:33:37.328Z,8.49
2022-10-22T05:34:40.031Z,8.54
2022-10-22T05:35:46.625Z,8.59
2022-10-22T05:36:48.599Z,8.58
2022-10-22T05:37:50.229Z,8.63
2022-10-22T05:38:51.997Z,8.70
2022-10-22T05:40:01.842Z,8.78
2022-10-22T05:41:22.606Z,8.84
2022-10-22T05:42:24.195Z,8.88
2022-10-22T05:43:25.719Z,8.96
2022-10-22T05:44:27.255Z,8.97
2022-10-22T05:45:28.805Z,9.02
2022-10-22T05:46:33.334Z,9.02
2022-10-22T05:47:34.912Z,9.05
2022-10-22T05:48:36.698Z,9.13
2022-10-22T05:49:38.291Z,9.07
2022-10-22T05:50:39.824Z,9.05
2022-10-22T05:51:43.446Z,9.04
2022-10-22T05:52:44.944Z,9.08
2022-10-22T05:53:50.834Z,9.13
2022-10-22T05:54:52.396Z,9.17
2022-10-22T05:55:53.936Z,9.23
2022-10-22T05:56:55.723Z,9.24
2022-10-22T05:57:57.337Z,9.29
2022-10-22T05:58:59.374Z,9.39
2022-10-22T06:00:00.927Z,9.48
2022-10-22T06:01:04.934Z,9.49
2022-10-22T06:02:06.935Z,9.49
2022-10-22T06:03:08.518Z,9.50
2022-10-22T06:04:12.831Z,9.52
2022-10-22T06:05:14.519Z,9.43
2022-10-22T06:06:21.246Z,9.25
2022-10-22T06:07:23.148Z,9.08
2022-10-22T06:08:24.729Z,9.01
2022-10-22T06:09:28.766Z,8.99
2022-10-22T06:10:30.762Z,8.88
2022-10-22T06:11:35.030Z,8.82
2022-10-22T06:12:39.336Z,8.82
2022-10-22T06:13:41.109Z,8.84
2022-10-22T06:14:42.729Z,8.77
2022-10-22T06:15:46.728Z,8.67
2022-10-22T06:16:49.002Z,8.57
2022-10-22T06:17:50.595Z,8.68
2022-10-22T06:18:52.156Z,8.82
2022-10-22T06:19:53.780Z,8.92
2022-10-22T06:20:55.542Z,8.96
2022-10-22T06:21:57.085Z,9.09
2022-10-22T06:22:58.663Z,9.19
2022-10-22T06:24:01.580Z,9.33
2022-10-22T06:25:05.919Z,9.45
2022-10-22T06:26:08.401Z,9.53
2022-10-22T06:27:10.021Z,9.60
2022-10-22T06:28:11.638Z,9.62
2022-10-22T06:29:13.443Z,9.62
2022-10-22T06:30:15.158Z,9.71
2022-10-22T06:31:16.953Z,9.71
2022-10-22T06:32:20.867Z,9.81
2022-10-22T06:33:26.000Z,9.91
2022-10-22T06:34:27.586Z,9.98
2022-10-22T06:35:29.118Z,10.08
2022-10-22T06:36:30.916Z,10.23
2022-10-22T06:37:32.506Z,10.37
2022-10-22T06:38:36.571Z,10.45
2022-10-22T06:39:38.202Z,10.55
2022-10-22T06:40:43.459Z,10.66
2022-10-22T06:41:47.967Z,10.81
2022-10-22T06:42:49.553Z,10.97
2022-10-22T06:43:51.245Z,11.06
2022-10-22T06:44:54.270Z,11.15
2022-10-22T06:46:00.773Z,11.33
2022-10-22T06:47:04.190Z,11.50
2022-10-22T06:48:06.164Z,11.57
2022-10-22T06:49:07.870Z,11.64
2022-10-22T06:50:09.786Z,11.81
2022-10-22T06:51:12.617Z,11.89
2022-10-22T06:52:16.576Z,12.08
2022-10-22T06:53:18.152Z,12.13
2022-10-22T06:54:20.856Z,12.21
2022-10-22T06:55:22.592Z,12.26
2022-10-22T06:56:26.666Z,12.33
2022-10-22T06:57:29.936Z,12.44
2022-10-22T06:58:34.106Z,12.49
2022-10-22T06:59:35.990Z,12.48
2022-10-22T07:00:39.926Z,12.36
2022-10-22T07:01:42.470Z,12.41
2022-10-22T07:02:44.253Z,12.08
2022-10-22T07:03:48.744Z,12.12
2022-10-22T07:04:50.318Z,12.38
2022-10-22T07:05:52.551Z,12.63
2022-10-22T07:06:57.153Z,12.64
2022-10-22T07:07:58.746Z,12.64
2022-10-22T07:09:02.810Z,12.57
2022-10-22T07:10:04.877Z,12.67
2022-10-22T07:11:12.647Z,12.74
2022-10-22T07:12:14.529Z,12.68
2022-10-22T07:13:16.189Z,12.67
2022-10-22T07:14:20.158Z,12.76
2022-10-22T07:15:23.301Z,12.79
2022-10-22T07:16:29.679Z,12.82
2022-10-22T07:17:34.010Z,12.81
2022-10-22T07:18:37.386Z,12.91
2022-10-22T07:19:39.152Z,13.18
2022-10-22T07:20:40.805Z,13.40
2022-10-22T07:21:42.473Z,13.54
2022-10-22T07:22:44.409Z,13.56
2022-10-22T07:23:46.631Z,13.33
2022-10-22T07:24:49.564Z,13.13
2022-10-22T07:25:51.450Z,12.81
2022-10-22T07:26:56.180Z,12.91
2022-10-22T07:27:57.953Z,13.11
2022-10-22T07:29:00.828Z,13.41
2022-10-22T07:30:03.664Z,13.55
2022-10-22T07:31:09.714Z,13.73
2022-10-22T07:32:12.018Z,13.85
2022-10-22T07:33:13.923Z,13.86
2022-10-22T07:34:15.820Z,13.95
2022-10-22T07:35:17.435Z,14.08
2022-10-22T07:36:19.276Z,14.20
2022-10-22T07:37:23.854Z,13.88
2022-10-22T07:38:25.877Z,13.33
2022-10-22T07:39:29.839Z,12.87
2022-10-22T07:40:31.938Z,12.73
2022-10-22T07:41:33.553Z,12.59
2022-10-22T07:42:35.111Z,12.53
2022-10-22T07:43:38.030Z,12.57
2022-10-22T07:44:39.755Z,12.79
2022-10-22T07:45:41.872Z,13.10
2022-10-22T07:46:45.504Z,13.34
2022-10-22T07:47:49.939Z,13.58
2022-10-22T07:48:51.886Z,13.62
2022-10-22T07:49:53.998Z,13.75
2022-10-22T07:51:02.839Z,13.72
2022-10-22T07:52:05.900Z,13.55
2022-10-22T07:53:07.547Z,13.32
2022-10-22T07:54:09.167Z,13.35
2022-10-22T07:55:11.425Z,13.56
2022-10-22T07:56:13.918Z,13.62
2022-10-22T07:57:15.581Z,13.65
2022-10-22T07:58:21.469Z,13.77
2022-10-22T07:59:23.170Z,13.88
2022-10-22T08:00:25.478Z,14.07
2022-10-22T08:01:27.406Z,14.22
2022-10-22T08:02:29.059Z,14.38
2022-10-22T08:03:31.904Z,14.34
2022-10-22T08:04:33.511Z,14.37
2022-10-22T08:05:35.093Z,14.58
2022-10-22T08:06:36.849Z,14.78
2022-10-22T08:07:38.436Z,14.90
2022-10-22T08:08:40.110Z,15.02
2022-10-22T08:09:41.798Z,15.11
2022-10-22T08:10:44.167Z,15.18
2022-10-22T08:11:46.363Z,15.31
2022-10-22T08:12:51.088Z,15.38
2022-10-22T08:13:53.969Z,15.27
2022-10-22T08:14:55.689Z,15.42
2022-10-22T08:16:00.544Z,15.29
2022-10-22T08:17:08.239Z,14.97
2022-10-22T08:18:09.935Z,14.79
2022-10-22T08:19:11.613Z,14.79
2022-10-22T08:20:13.307Z,14.96
2022-10-22T08:21:14.990Z,15.19
2022-10-22T08:22:16.664Z,15.43
2022-10-22T08:23:28.961Z,15.57
2022-10-22T08:24:30.725Z,15.50
2022-10-22T08:25:34.297Z,15.50
2022-10-22T08:26:35.945Z,15.49
2022-10-22T08:27:38.460Z,15.44
2022-10-22T08:28:40.240Z,15.38
2022-10-22T08:29:41.862Z,15.42
2022-10-22T08:30:45.063Z,15.40
2022-10-22T08:31:46.658Z,15.45
2022-10-22T08:32:51.592Z,15.51
2022-10-22T08:33:55.630Z,15.34
2022-10-22T08:34:57.462Z,15.19
2022-10-22T08:35:59.598Z,15.12
2022-10-22T08:37:01.318Z,15.28
2022-10-22T08:38:02.901Z,15.48
2022-10-22T08:39:06.826Z,15.56
2022-10-22T08:40:12.177Z,15.62
2022-10-22T08:41:15.715Z,15.88
2022-10-22T08:42:37.810Z,16.03
2022-10-22T08:43:42.358Z,16.21
2022-10-22T08:44:59.733Z,16.24
2022-10-22T08:46:16.675Z,16.38
2022-10-22T08:47:32.839Z,16.57
2022-10-22T08:48:43.418Z,16.63
2022-10-22T08:49:45.062Z,16.68
2022-10-22T08:50:49.816Z,16.77
2022-10-22T08:51:52.874Z,16.90
2022-10-22T08:53:03.266Z,16.90
2022-10-22T08:54:53.091Z,16.67
2022-10-22T08:55:54.946Z,16.37
2022-10-22T08:57:09.095Z,16.08
2022-10-22T08:58:36.222Z,16.07
2022-10-22T08:59:53.562Z,16.23
2022-10-22T09:01:14.657Z,16.29
2022-10-22T09:02:56.297Z,16.40
2022-10-22T09:04:00.355Z,16.33
2022-10-22T09:05:17.443Z,16.36
2022-10-22T09:06:25.138Z,16.50
2022-10-22T09:07:26.769Z,16.66
2022-10-22T09:08:29.058Z,16.65
2022-10-22T09:09:37.355Z,16.47
2022-10-22T09:10:43.446Z,16.35
2022-10-22T09:11:51.064Z,16.37
2022-10-22T09:12:53.082Z,16.27
2022-10-22T09:13:57.249Z,16.36
2022-10-22T09:14:58.936Z,16.39
2022-10-22T09:16:11.552Z,16.31
2022-10-22T09:17:28.296Z,16.26
2022-10-22T09:18:52.101Z,16.15
2022-10-22T09:20:01.882Z,16.03
2022-10-22T09:21:14.288Z,16.11
2022-10-22T09:22:24.885Z,16.12
2022-10-22T09:23:38.415Z,16.16
2022-10-22T09:24:46.898Z,16.36
2022-10-22T09:25:50.041Z,16.47
2022-10-22T09:26:51.694Z,16.47
2022-10-22T09:27:58.425Z,16.56
2022-10-22T09:29:01.005Z,16.72
2022-10-22T09:30:02.793Z,16.76
2022-10-22T09:31:12.106Z,16.69
2022-10-22T09:32:14.857Z,16.56
2022-10-22T09:33:27.813Z,16.41
2022-10-22T09:34:30.680Z,16.47
2022-10-22T09:36:05.770Z,16.67
2022-10-22T09:37:09.787Z,16.78
2022-10-22T09:38:13.945Z,16.86
2022-10-22T09:39:29.650Z,16.90
2022-10-22T09:40:31.242Z,16.92
2022-10-22T09:41:33.225Z,16.81
2022-10-22T09:42:36.532Z,16.87
2022-10-22T09:43:38.415Z,17.05
2022-10-22T09:44:46.339Z,17.24
2022-10-22T09:45:58.069Z,17.01
2022-10-22T09:46:59.748Z,16.92
2022-10-22T09:48:15.897Z,17.06
2022-10-22T09:49:24.153Z,17.24
2022-10-22T09:50:47.325Z,17.41
2022-10-22T09:52:00.260Z,17.58
2022-10-22T09:53:17.313Z,17.51
2022-10-22T09:54:25.664Z,17.39
2022-10-22T09:55:31.199Z,17.26
2022-10-22T09:56:32.862Z,17.31
2022-10-22T09:57:38.767Z,17.33
2022-10-22T09:58:49.455Z,17.52
2022-10-22T09:59:54.056Z,17.66
2022-10-22T10:01:00.803Z,17.74
2022-10-22T10:02:37.079Z,17.87
2022-10-22T10:03:39.584Z,18.02
2022-10-22T10:04:46.677Z,18.14
2022-10-22T10:05:53.616Z,18.19
2022-10-22T10:06:56.673Z,17.99
2022-10-22T10:07:59.741Z,17.88
2022-10-22T10:09:06.452Z,17.94
2022-10-22T10:10:21.302Z,17.89
2022-10-22T10:11:40.421Z,17.87
2022-10-22T10:12:42.045Z,17.99
2022-10-22T10:13:47.554Z,18.10
2022-10-22T10:15:24.670Z,18.12
2022-10-22T10:16:55.593Z,18.16
2022-10-22T10:18:43.802Z,18.24
2022-10-22T10:20:03.685Z,18.22
2022-10-22T10:21:16.156Z,18.17
2022-10-22T10:22:46.988Z,18.22
2022-10-22T10:24:07.774Z,18.29
2022-10-22T10:25:32.753Z,18.58
2022-10-22T10:27:00.148Z,18.75
2022-10-22T10:28:07.706Z,18.90
2022-10-22T10:29:17.908Z,18.87
2022-10-22T10:30:23.987Z,18.81
2022-10-22T10:31:52.640Z,18.87
2022-10-22T10:33:06.599Z,18.99
2022-10-22T10:34:33.681Z,18.98
2022-10-22T10:35:41.454Z,19.01
2022-10-22T10:36:46.147Z,19.12
2022-10-22T10:38:08.428Z,19.16
2022-10-22T10:39:38.269Z,19.23
2022-10-22T10:40:57.083Z,19.22
2022-10-22T10:42:08.416Z,19.33
2022-10-22T10:43:18.894Z,19.24
2022-10-22T10:45:08.272Z,19.27
2022-10-22T10:46:31.222Z,19.22
2022-10-22T10:48:06.018Z,19.09
2022-10-22T10:49:18.969Z,18.99
2022-10-22T10:50:28.020Z,19.14
2022-10-22T10:51:51.284Z,19.26
2022-10-22T10:53:14.826Z,19.34
2022-10-22T10:54:25.570Z,19.48
2022-10-22T10:55:38.843Z,19.49
2022-10-22T10:56:49.053Z,19.50
2022-10-22T10:58:15.017Z,19.41
2022-10-22T10:59:48.157Z,19.45
2022-10-22T11:00:57.080Z,19.41
2022-10-22T11:02:15.162Z,19.51
2022-10-22T11:03:45.898Z,19.61
2022-10-22T11:05:07.254Z,19.62
2022-10-22T11:06:16.264Z,19.57
2022-10-22T11:07:34.163Z,19.58
2022-10-22T11:08:54.774Z,19.56
2022-10-22T11:10:02.833Z,19.59
2022-10-22T11:11:08.224Z,19.58
2022-10-22T11:12:22.783Z,19.63
2022-10-22T11:13:28.741Z,19.69
2022-10-22T11:14:49.517Z,19.80
2022-10-22T11:16:03.654Z,19.80
2022-10-22T11:17:17.055Z,19.80
2022-10-22T11:18:34.576Z,19.85
2022-10-22T11:19:52.473Z,19.89
2022-10-22T11:21:17.738Z,19.96
2022-10-22T11:22:27.093Z,20.04
2022-10-22T11:23:39.287Z,20.01
2022-10-22T11:24:50.760Z,20.10
2022-10-22T11:25:52.421Z,20.16
2022-10-22T11:27:02.167Z,20.22
2022-10-22T11:28:11.640Z,20.30
2022-10-22T11:29:21.750Z,20.37
2022-10-22T11:30:26.112Z,20.41
2022-10-22T11:31:31.009Z,20.44
2022-10-22T11:32:33.595Z,20.46
2022-10-22T11:33:48.586Z,20.50
2022-10-22T11:34:54.548Z,20.52
2022-10-22T11:35:59.457Z,20.61
2022-10-22T11:37:03.182Z,20.58
2022-10-22T11:38:07.577Z,20.56
2022-10-22T11:39:29.421Z,20.56
2022-10-22T11:40:39.120Z,20.64
2022-10-22T11:41:40.932Z,20.72
2022-10-22T11:42:52.497Z,20.71
2022-10-22T11:44:23.310Z,20.67
2022-10-22T11:45:24.922Z,20.78
2022-10-22T11:46:44.562Z,20.78
2022-10-22T11:47:58.307Z,20.72
2022-10-22T11:49:07.845Z,20.78
2022-10-22T11:50:26.188Z,20.78
2022-10-22T11:51:39.934Z,20.81
2022-10-22T11:53:09.287Z,20.81
2022-10-22T11:54:37.391Z,20.80
2022-10-22T11:55:46.024Z,20.92
2022-10-22T11:56:54.925Z,20.88
2022-10-22T11:57:59.265Z,20.85
2022-10-22T11:59:00.810Z,20.89
2022-10-22T12:00:10.090Z,20.79
2022-10-22T12:01:11.716Z,20.84
2022-10-22T12:02:40.578Z,20.90
2022-10-22T12:04:04.009Z,20.94
2022-10-22T12:05:23.860Z,20.96
2022-10-22T12:06:28.054Z,20.93
2022-10-22T12:08:00.263Z,20.92
2022-10-22T12:09:07.078Z,20.80
2022-10-22T12:10:25.695Z,20.62
2022-10-22T12:11:44.024Z,20.56
2022-10-22T12:12:55.897Z,20.63
2022-10-22T12:14:21.689Z,20.77
2022-10-22T12:15:29.974Z,20.76
2022-10-22T12:16:55.834Z,20.72
2022-10-22T12:18:06.757Z,20.75
2022-10-22T12:19:15.012Z,20.68
2022-10-22T12:20:17.637Z,20.74
2022-10-22T12:21:20.688Z,20.78
2022-10-22T12:22:32.152Z,20.78
2022-10-22T12:23:35.633Z,20.75
2022-10-22T12:24:40.757Z,20.76
2022-10-22T12:25:42.377Z,20.76
2022-10-22T12:26:46.070Z,20.74
2022-10-22T12:27:55.115Z,20.77
2022-10-22T12:28:58.779Z,20.81
2022-10-22T12:30:01.952Z,20.77
2022-10-22T12:31:03.635Z,20.77
2022-10-22T12:32:05.584Z,20.80
2022-10-22T12:33:18.008Z,20.82
2022-10-22T12:34:25.781Z,20.79
2022-10-22T12:35:43.798Z,20.75
2022-10-22T12:36:48.078Z,20.76
2022-10-22T12:38:11.043Z,20.87
2022-10-22T12:39:19.393Z,20.93
2022-10-22T12:40:33.404Z,20.93
2022-10-22T12:41:37.023Z,20.90
2022-10-22T12:42:38.734Z,20.90
2022-10-22T12:43:42.409Z,20.94
2022-10-22T12:44:53.680Z,21.01
2022-10-22T12:45:57.833Z,20.97
2022-10-22T12:46:59.665Z,20.90
2022-10-22T12:48:09.279Z,20.96
2022-10-22T12:49:29.337Z,20.91
2022-10-22T12:50:42.625Z,20.88
2022-10-22T12:51:46.037Z,20.79
2022-10-22T12:52:48.864Z,20.72
2022-10-22T12:53:55.886Z,20.71
2022-10-22T12:54:58.022Z,20.74
2022-10-22T12:56:04.217Z,20.77
2022-10-22T12:57:05.892Z,20.77
2022-10-22T12:58:08.473Z,20.84
2022-10-22T12:59:19.748Z,20.78
2022-10-22T13:00:26.149Z,20.78
2022-10-22T13:01:32.546Z,20.78
2022-10-22T13:02:34.413Z,20.76
2022-10-22T13:03:44.904Z,20.76
2022-10-22T13:05:24.972Z,20.77
2022-10-22T13:06:28.735Z,20.78
2022-10-22T13:07:38.950Z,20.73
2022-10-22T13:08:41.343Z,20.65
2022-10-22T13:09:44.415Z,20.64
2022-10-22T13:10:54.320Z,20.57
2022-10-22T13:12:04.595Z,20.52
2022-10-22T13:13:07.113Z,20.53
2022-10-22T13:14:38.364Z,20.58
2022-10-22T13:15:42.645Z,20.54
2022-10-22T13:17:03.154Z,20.54
2022-10-22T13:18:18.945Z,20.50
2022-10-22T13:19:56.427Z,20.46
2022-10-22T13:21:03.608Z,20.47
2022-10-22T13:22:05.252Z,20.47
2022-10-22T13:23:20.757Z,20.58
2022-10-22T13:24:24.570Z,20.63
2022-10-22T13:25:29.269Z,20.71
2022-10-22T13:26:37.319Z,20.70
2022-10-22T13:27:45.172Z,20.69
2022-10-22T13:28:51.902Z,20.69
2022-10-22T13:30:24.801Z,20.70
2022-10-22T13:31:23.899Z,20.75
2022-10-22T13:32:33.849Z,20.74
2022-10-22T13:33:42.383Z,20.68
2022-10-22T13:34:58.744Z,20.68
2022-10-22T13:36:00.883Z,20.62
2022-10-22T13:37:03.934Z,20.76
2022-10-22T13:38:19.852Z,20.79
2022-10-22T13:39:26.412Z,20.69
2022-10-22T13:40:30.238Z,20.74
2022-10-22T13:41:32.459Z,20.71
2022-10-22T13:42:34.220Z,20.80
2022-10-22T13:43:35.943Z,20.81
2022-10-22T13:44:37.665Z,20.85
2022-10-22T13:45:39.783Z,20.85
2022-10-22T13:46:43.205Z,20.76
2022-10-22T13:47:49.725Z,20.79
2022-10-22T13:48:53.747Z,20.79
2022-10-22T13:50:00.801Z,20.91
2022-10-22T13:51:02.565Z,20.92
2022-10-22T13:52:04.325Z,20.92
2022-10-22T13:53:06.149Z,20.92
2022-10-22T13:54:16.061Z,20.89
2022-10-22T13:55:26.811Z,20.91
2022-10-22T13:56:28.572Z,20.82
2022-10-22T13:57:30.205Z,20.79
2022-10-22T13:58:31.760Z,20.75
2022-10-22T13:59:33.523Z,20.71
2022-10-22T14:00:37.411Z,20.81
2022-10-22T14:01:39.556Z,20.82
2022-10-22T14:02:41.870Z,20.76
2022-10-22T14:03:44.082Z,20.80
2022-10-22T14:04:46.462Z,20.85
2022-10-22T14:06:02.425Z,20.80
2022-10-22T14:07:04.350Z,20.88
2022-10-22T14:08:12.063Z,20.89
2022-10-22T14:09:16.130Z,20.81
2022-10-22T14:10:19.679Z,20.68
2022-10-22T14:11:21.514Z,20.65
2022-10-22T14:12:23.209Z,20.64
2022-10-22T14:13:27.854Z,20.65
2022-10-22T14:14:29.454Z,20.63
2022-10-22T14:15:30.980Z,20.63
2022-10-22T14:16:34.152Z,20.57
2022-10-22T14:17:36.065Z,20.57
2022-10-22T14:18:37.628Z,20.54
2022-10-22T14:19:39.645Z,20.62
2022-10-22T14:20:42.653Z,20.64
2022-10-22T14:21:44.384Z,20.59
2022-10-22T14:22:47.399Z,20.58
2022-10-22T14:23:51.307Z,20.57
2022-10-22T14:24:54.373Z,20.55
2022-10-22T14:25:57.537Z,20.45
2022-10-22T14:26:59.203Z,20.38
2022-10-22T14:28:01.024Z,20.45
2022-10-22T14:29:09.306Z,20.50
2022-10-22T14:30:17.827Z,20.50
2022-10-22T14:31:19.810Z,20.51